sensor_id;sensor_type;location;lat;lon;timestamp;pressure;altitude;pressure_sealevel;temperature;humidity
14041;BME280;7095;51.388;6.196;2024-01-10T00:01:48;53970.31;;;-145.32;81.39
14041;BME280;7095;51.388;6.196;2024-01-10T00:04:17;53938.50;;;-145.32;81.16
14041;BME280;7095;51.388;6.196;2024-01-10T00:06:46;53956.38;;;-145.32;81.56
14041;BME280;7095;51.388;6.196;2024-01-10T00:09:14;53982.25;;;-145.32;81.55
14041;BME280;7095;51.388;6.196;2024-01-10T00:11:43;53976.28;;;-145.32;81.87
14041;BME280;7095;51.388;6.196;2024-01-10T00:14:12;53986.22;;;-145.32;81.98
14041;BME280;7095;51.388;6.196;2024-01-10T00:16:42;53960.38;;;-145.32;82.00
14041;BME280;7095;51.388;6.196;2024-01-10T00:19:11;53948.44;;;-145.32;81.92
14041;BME280;7095;51.388;6.196;2024-01-10T00:21:40;53956.38;;;-145.32;82.05
14041;BME280;7095;51.388;6.196;2024-01-10T00:24:09;53952.41;;;-145.32;81.98
14041;BME280;7095;51.388;6.196;2024-01-10T00:26:37;53968.31;;;-145.32;82.32
14041;BME280;7095;51.388;6.196;2024-01-10T00:29:06;53982.25;;;-145.32;82.11
14041;BME280;7095;51.388;6.196;2024-01-10T00:31:34;53966.34;;;-145.32;81.73
14041;BME280;7095;51.388;6.196;2024-01-10T00:34:04;53924.56;;;-145.32;81.93
14041;BME280;7095;51.388;6.196;2024-01-10T00:36:33;53950.44;;;-145.32;81.96
14041;BME280;7095;51.388;6.196;2024-01-10T00:39:02;53964.34;;;-145.32;81.96
14041;BME280;7095;51.388;6.196;2024-01-10T00:41:31;53962.34;;;-145.32;81.45
14041;BME280;7095;51.388;6.196;2024-01-10T00:43:59;53968.31;;;-145.32;81.74
14041;BME280;7095;51.388;6.196;2024-01-10T00:46:28;53962.34;;;-145.32;81.70
14041;BME280;7095;51.388;6.196;2024-01-10T00:48:56;53996.16;;;-145.32;81.83
14041;BME280;7095;51.388;6.196;2024-01-10T00:51:26;53960.38;;;-145.32;81.70
14041;BME280;7095;51.388;6.196;2024-01-10T00:53:55;53990.19;;;-145.32;81.83
14041;BME280;7095;51.388;6.196;2024-01-10T00:56:23;53944.47;;;-145.32;81.55
14041;BME280;7095;51.388;6.196;2024-01-10T00:58:52;53952.41;;;-145.32;81.57
14041;BME280;7095;51.388;6.196;2024-01-10T01:01:25;53954.41;;;-145.32;81.71
14041;BME280;7095;51.388;6.196;2024-01-10T01:03:54;53956.38;;;-145.32;81.41
14041;BME280;7095;51.388;6.196;2024-01-10T01:06:22;53998.16;;;-145.32;81.36
14041;BME280;7095;51.388;6.196;2024-01-10T01:08:52;53968.31;;;-145.32;81.90
14041;BME280;7095;51.388;6.196;2024-01-10T01:11:21;53952.41;;;-145.32;81.74
14041;BME280;7095;51.388;6.196;2024-01-10T01:13:50;53972.28;;;-145.32;81.90
14041;BME280;7095;51.388;6.196;2024-01-10T01:16:18;53972.28;;;-145.32;81.85
14041;BME280;7095;51.388;6.196;2024-01-10T01:18:47;54000.13;;;-145.32;82.07
14041;BME280;7095;51.388;6.196;2024-01-10T01:21:16;53968.31;;;-145.32;81.80
14041;BME280;7095;51.388;6.196;2024-01-10T01:23:45;53988.19;;;-145.32;82.12
14041;BME280;7095;51.388;6.196;2024-01-10T01:26:15;53944.47;;;-145.32;81.87
14041;BME280;7095;51.388;6.196;2024-01-10T01:28:44;53988.19;;;-145.32;82.24
14041;BME280;7095;51.388;6.196;2024-01-10T01:31:12;53992.19;;;-145.32;82.48
14041;BME280;7095;51.388;6.196;2024-01-10T01:33:41;53992.19;;;-145.32;82.37
14041;BME280;7095;51.388;6.196;2024-01-10T01:36:10;53958.38;;;-145.32;82.68
14041;BME280;7095;51.388;6.196;2024-01-10T01:38:38;54016.03;;;-145.32;82.80
14041;BME280;7095;51.388;6.196;2024-01-10T01:41:07;53976.28;;;-145.32;82.88
14041;BME280;7095;51.388;6.196;2024-01-10T01:43:37;54004.09;;;-145.32;83.00
14041;BME280;7095;51.388;6.196;2024-01-10T01:46:07;53996.16;;;-145.32;82.89
14041;BME280;7095;51.388;6.196;2024-01-10T01:48:36;53986.22;;;-145.32;82.83
14041;BME280;7095;51.388;6.196;2024-01-10T01:51:06;53968.31;;;-145.32;82.78
14041;BME280;7095;51.388;6.196;2024-01-10T01:53:36;53968.31;;;-145.32;82.46
14041;BME280;7095;51.388;6.196;2024-01-10T01:56:06;53984.22;;;-145.32;82.64
14041;BME280;7095;51.388;6.196;2024-01-10T01:58:38;54000.13;;;-145.32;82.93
14041;BME280;7095;51.388;6.196;2024-01-10T02:01:09;53992.19;;;-145.32;83.13
14041;BME280;7095;51.388;6.196;2024-01-10T02:03:39;53984.22;;;-145.32;82.99
14041;BME280;7095;51.388;6.196;2024-01-10T02:06:07;54008.09;;;-145.32;82.62
14041;BME280;7095;51.388;6.196;2024-01-10T02:08:36;53972.28;;;-145.32;82.80
14041;BME280;7095;51.388;6.196;2024-01-10T02:11:04;53982.25;;;-145.32;82.46
14041;BME280;7095;51.388;6.196;2024-01-10T02:13:34;53986.22;;;-145.32;82.66
14041;BME280;7095;51.388;6.196;2024-01-10T02:16:05;54016.03;;;-145.32;82.77
14041;BME280;7095;51.388;6.196;2024-01-10T02:18:34;53984.22;;;-145.32;83.03
14041;BME280;7095;51.388;6.196;2024-01-10T02:21:03;54002.13;;;-145.32;83.04
14041;BME280;7095;51.388;6.196;2024-01-10T02:23:32;53998.16;;;-145.32;82.79
14041;BME280;7095;51.388;6.196;2024-01-10T02:26:02;53968.31;;;-145.32;82.94
14041;BME280;7095;51.388;6.196;2024-01-10T02:28:31;53998.16;;;-145.32;83.16
14041;BME280;7095;51.388;6.196;2024-01-10T02:31:00;53948.44;;;-145.32;82.74
14041;BME280;7095;51.388;6.196;2024-01-10T02:33:29;54029.97;;;-145.32;83.28
14041;BME280;7095;51.388;6.196;2024-01-10T02:35:57;53996.16;;;-145.32;83.23
14041;BME280;7095;51.388;6.196;2024-01-10T02:38:26;53974.28;;;-145.32;83.16
14041;BME280;7095;51.388;6.196;2024-01-10T02:40:55;53972.28;;;-145.32;83.35
14041;BME280;7095;51.388;6.196;2024-01-10T02:43:25;53958.38;;;-145.32;83.08
14041;BME280;7095;51.388;6.196;2024-01-10T02:45:53;53998.16;;;-145.32;83.80
14041;BME280;7095;51.388;6.196;2024-01-10T02:48:22;54010.06;;;-145.32;83.89
14041;BME280;7095;51.388;6.196;2024-01-10T02:50:51;53980.25;;;-145.32;83.81
14041;BME280;7095;51.388;6.196;2024-01-10T02:53:21;53996.16;;;-145.32;83.59
14041;BME280;7095;51.388;6.196;2024-01-10T02:55:50;54027.97;;;-145.32;84.00
14041;BME280;7095;51.388;6.196;2024-01-10T02:58:19;53968.31;;;-145.32;83.87
14041;BME280;7095;51.388;6.196;2024-01-10T03:00:50;53976.28;;;-145.32;83.44
14041;BME280;7095;51.388;6.196;2024-01-10T03:03:18;53990.19;;;-145.32;83.89
14041;BME280;7095;51.388;6.196;2024-01-10T03:05:47;54024.00;;;-145.32;83.57
14041;BME280;7095;51.388;6.196;2024-01-10T03:08:16;53994.16;;;-145.32;83.92
14041;BME280;7095;51.388;6.196;2024-01-10T03:10:44;53994.16;;;-145.32;83.94
14041;BME280;7095;51.388;6.196;2024-01-10T03:13:13;53994.16;;;-145.32;83.86
14041;BME280;7095;51.388;6.196;2024-01-10T03:15:41;53998.16;;;-145.32;84.23
14041;BME280;7095;51.388;6.196;2024-01-10T03:18:11;54027.97;;;-145.32;83.95
14041;BME280;7095;51.388;6.196;2024-01-10T03:20:40;54024.00;;;-145.32;84.37
14041;BME280;7095;51.388;6.196;2024-01-10T03:23:09;54033.94;;;-145.32;84.55
14041;BME280;7095;51.388;6.196;2024-01-10T03:25:37;54027.97;;;-145.32;84.75
14041;BME280;7095;51.388;6.196;2024-01-10T03:28:06;53988.19;;;-145.32;84.67
14041;BME280;7095;51.388;6.196;2024-01-10T03:30:35;54002.13;;;-145.32;84.33
14041;BME280;7095;51.388;6.196;2024-01-10T03:33:04;54012.06;;;-145.32;84.57
14041;BME280;7095;51.388;6.196;2024-01-10T03:35:34;54045.88;;;-145.32;84.87
14041;BME280;7095;51.388;6.196;2024-01-10T03:38:03;54008.09;;;-145.32;84.50
14041;BME280;7095;51.388;6.196;2024-01-10T03:40:32;54012.06;;;-145.32;84.75
14041;BME280;7095;51.388;6.196;2024-01-10T03:43:00;54016.03;;;-145.32;85.09
14041;BME280;7095;51.388;6.196;2024-01-10T03:45:29;54008.09;;;-145.32;84.93
14041;BME280;7095;51.388;6.196;2024-01-10T03:47:58;53986.22;;;-145.32;85.52
14041;BME280;7095;51.388;6.196;2024-01-10T03:50:26;54006.09;;;-145.32;85.59
14041;BME280;7095;51.388;6.196;2024-01-10T03:52:56;54006.09;;;-145.32;85.99
14041;BME280;7095;51.388;6.196;2024-01-10T03:55:25;54047.84;;;-145.32;85.64
14041;BME280;7095;51.388;6.196;2024-01-10T03:57:54;53988.19;;;-145.32;85.93
14041;BME280;7095;51.388;6.196;2024-01-10T04:00:23;54051.81;;;-145.32;86.14
14041;BME280;7095;51.388;6.196;2024-01-10T04:02:53;54025.97;;;-145.32;86.37
14041;BME280;7095;51.388;6.196;2024-01-10T04:05:22;53998.16;;;-145.32;86.40
14041;BME280;7095;51.388;6.196;2024-01-10T04:07:52;54010.06;;;-145.32;86.85
14041;BME280;7095;51.388;6.196;2024-01-10T04:10:25;54035.91;;;-145.32;86.97
14041;BME280;7095;51.388;6.196;2024-01-10T04:12:54;54016.03;;;-145.32;86.36
14041;BME280;7095;51.388;6.196;2024-01-10T04:15:22;54035.91;;;-145.32;87.14
14041;BME280;7095;51.388;6.196;2024-01-10T04:17:51;54043.88;;;-145.32;87.47
14041;BME280;7095;51.388;6.196;2024-01-10T04:20:19;54035.91;;;-145.32;87.68
14041;BME280;7095;51.388;6.196;2024-01-10T04:22:48;54031.94;;;-145.32;87.74
14041;BME280;7095;51.388;6.196;2024-01-10T04:25:17;54039.91;;;-145.32;87.87
14041;BME280;7095;51.388;6.196;2024-01-10T04:27:47;54014.06;;;-145.32;87.34
14041;BME280;7095;51.388;6.196;2024-01-10T04:30:17;54004.09;;;-145.32;88.14
14041;BME280;7095;51.388;6.196;2024-01-10T04:32:46;54031.94;;;-145.32;88.06
14041;BME280;7095;51.388;6.196;2024-01-10T04:35:14;54004.09;;;-145.32;88.33
14041;BME280;7095;51.388;6.196;2024-01-10T04:37:43;54031.94;;;-145.32;88.05
14041;BME280;7095;51.388;6.196;2024-01-10T04:40:12;54016.03;;;-145.32;88.21
14041;BME280;7095;51.388;6.196;2024-01-10T04:42:40;54031.94;;;-145.32;88.40
14041;BME280;7095;51.388;6.196;2024-01-10T04:45:11;54029.97;;;-145.32;88.20
14041;BME280;7095;51.388;6.196;2024-01-10T04:47:39;54053.81;;;-145.32;88.16
14041;BME280;7095;51.388;6.196;2024-01-10T04:50:09;54016.03;;;-145.32;88.28
14041;BME280;7095;51.388;6.196;2024-01-10T04:52:41;53998.16;;;-145.32;87.95
14041;BME280;7095;51.388;6.196;2024-01-10T04:55:10;54047.84;;;-145.32;88.28
14041;BME280;7095;51.388;6.196;2024-01-10T04:57:38;54045.88;;;-145.32;88.53
14041;BME280;7095;51.388;6.196;2024-01-10T05:00:07;54027.97;;;-145.32;88.38
14041;BME280;7095;51.388;6.196;2024-01-10T05:02:40;54022.00;;;-145.32;88.47
14041;BME280;7095;51.388;6.196;2024-01-10T05:05:08;54000.13;;;-145.32;88.70
14041;BME280;7095;51.388;6.196;2024-01-10T05:07:37;54047.84;;;-145.32;88.96
14041;BME280;7095;51.388;6.196;2024-01-10T05:10:06;54049.84;;;-145.32;88.82
14041;BME280;7095;51.388;6.196;2024-01-10T05:12:35;54045.88;;;-145.32;89.05
14041;BME280;7095;51.388;6.196;2024-01-10T05:15:06;54025.97;;;-145.32;88.92
14041;BME280;7095;51.388;6.196;2024-01-10T05:17:35;54043.88;;;-145.32;89.12
14041;BME280;7095;51.388;6.196;2024-01-10T05:20:06;54012.06;;;-145.32;89.11
14041;BME280;7095;51.388;6.196;2024-01-10T05:22:36;54055.81;;;-145.32;89.22
14041;BME280;7095;51.388;6.196;2024-01-10T05:25:06;54016.03;;;-145.32;89.34
14041;BME280;7095;51.388;6.196;2024-01-10T05:27:34;54029.97;;;-145.32;89.53
14041;BME280;7095;51.388;6.196;2024-01-10T05:30:03;54000.13;;;-145.32;89.79
14041;BME280;7095;51.388;6.196;2024-01-10T05:32:32;54035.91;;;-145.32;89.49
14041;BME280;7095;51.388;6.196;2024-01-10T05:35:00;54045.88;;;-145.32;89.96
14041;BME280;7095;51.388;6.196;2024-01-10T05:37:31;54031.94;;;-145.32;89.99
14041;BME280;7095;51.388;6.196;2024-01-10T05:40:00;54051.81;;;-145.32;90.30
14041;BME280;7095;51.388;6.196;2024-01-10T05:42:28;54035.91;;;-145.32;90.23
14041;BME280;7095;51.388;6.196;2024-01-10T05:44:57;54071.72;;;-145.32;90.18
14041;BME280;7095;51.388;6.196;2024-01-10T05:47:25;54039.91;;;-145.32;90.40
14041;BME280;7095;51.388;6.196;2024-01-10T05:49:55;54051.81;;;-145.32;90.30
14041;BME280;7095;51.388;6.196;2024-01-10T05:52:23;54059.78;;;-145.32;90.78
14041;BME280;7095;51.388;6.196;2024-01-10T05:54:53;54016.03;;;-145.32;91.00
14041;BME280;7095;51.388;6.196;2024-01-10T05:57:22;54024.00;;;-145.32;91.08
14041;BME280;7095;51.388;6.196;2024-01-10T05:59:50;54053.81;;;-145.32;91.11
14041;BME280;7095;51.388;6.196;2024-01-10T06:02:23;54039.91;;;-145.32;91.42
14041;BME280;7095;51.388;6.196;2024-01-10T06:04:52;54024.00;;;-145.32;91.49
14041;BME280;7095;51.388;6.196;2024-01-10T06:07:20;54024.00;;;-145.32;92.07
14041;BME280;7095;51.388;6.196;2024-01-10T06:09:49;54071.72;;;-145.32;92.24
14041;BME280;7095;51.388;6.196;2024-01-10T06:12:19;54043.88;;;-145.32;92.31
14041;BME280;7095;51.388;6.196;2024-01-10T06:14:47;54018.03;;;-145.32;92.21
14041;BME280;7095;51.388;6.196;2024-01-10T06:17:16;54035.91;;;-145.32;92.81
14041;BME280;7095;51.388;6.196;2024-01-10T06:19:49;54027.97;;;-145.32;92.34
14041;BME280;7095;51.388;6.196;2024-01-10T06:22:18;54016.03;;;-145.32;92.82
14041;BME280;7095;51.388;6.196;2024-01-10T06:24:55;54039.91;;;-145.32;92.66
14041;BME280;7095;51.388;6.196;2024-01-10T06:27:25;54024.00;;;-145.32;92.74
14041;BME280;7095;51.388;6.196;2024-01-10T06:29:54;54049.84;;;-145.32;92.87
14041;BME280;7095;51.388;6.196;2024-01-10T06:32:22;54045.88;;;-145.32;92.84
14041;BME280;7095;51.388;6.196;2024-01-10T06:34:51;54059.78;;;-145.32;92.86
14041;BME280;7095;51.388;6.196;2024-01-10T06:37:20;54053.81;;;-145.32;92.91
14041;BME280;7095;51.388;6.196;2024-01-10T06:39:49;54020.00;;;-145.32;92.98
14041;BME280;7095;51.388;6.196;2024-01-10T06:42:17;54033.94;;;-145.32;93.51
14041;BME280;7095;51.388;6.196;2024-01-10T06:44:47;54016.03;;;-145.32;93.29
14041;BME280;7095;51.388;6.196;2024-01-10T06:47:16;54061.78;;;-145.32;94.21
14041;BME280;7095;51.388;6.196;2024-01-10T06:49:44;54041.88;;;-145.32;93.88
14041;BME280;7095;51.388;6.196;2024-01-10T06:52:13;54049.84;;;-145.32;93.70
14041;BME280;7095;51.388;6.196;2024-01-10T06:54:43;54025.97;;;-145.32;93.90
14041;BME280;7095;51.388;6.196;2024-01-10T06:57:12;54049.84;;;-145.32;93.33
14041;BME280;7095;51.388;6.196;2024-01-10T06:59:40;54025.97;;;-145.32;92.99
14041;BME280;7095;51.388;6.196;2024-01-10T07:02:10;54051.81;;;-145.32;92.91
14041;BME280;7095;51.388;6.196;2024-01-10T07:04:39;54024.00;;;-145.32;92.79
14041;BME280;7095;51.388;6.196;2024-01-10T07:07:08;54043.88;;;-145.32;93.00
14041;BME280;7095;51.388;6.196;2024-01-10T07:09:36;53992.19;;;-145.32;92.67
14041;BME280;7095;51.388;6.196;2024-01-10T07:12:06;54027.97;;;-145.32;92.36
14041;BME280;7095;51.388;6.196;2024-01-10T07:14:36;54012.06;;;-145.32;92.30
14041;BME280;7095;51.388;6.196;2024-01-10T07:17:07;54027.97;;;-145.32;92.22
14041;BME280;7095;51.388;6.196;2024-01-10T07:19:37;54018.03;;;-145.32;91.60
14041;BME280;7095;51.388;6.196;2024-01-10T07:22:07;54043.88;;;-145.32;92.26
14041;BME280;7095;51.388;6.196;2024-01-10T07:24:37;54031.94;;;-145.32;92.06
14041;BME280;7095;51.388;6.196;2024-01-10T07:27:06;54059.78;;;-145.32;92.14
14041;BME280;7095;51.388;6.196;2024-01-10T07:29:35;54014.06;;;-145.32;92.13
14041;BME280;7095;51.388;6.196;2024-01-10T07:32:04;54033.94;;;-145.32;92.33
14041;BME280;7095;51.388;6.196;2024-01-10T07:34:33;54033.94;;;-145.32;92.23
14041;BME280;7095;51.388;6.196;2024-01-10T07:37:03;54043.88;;;-145.32;92.35
14041;BME280;7095;51.388;6.196;2024-01-10T07:39:32;54033.94;;;-145.32;91.94
14041;BME280;7095;51.388;6.196;2024-01-10T07:42:01;54024.00;;;-145.32;91.75
14041;BME280;7095;51.388;6.196;2024-01-10T07:44:30;54025.97;;;-145.32;91.82
14041;BME280;7095;51.388;6.196;2024-01-10T07:46:58;54031.94;;;-145.32;91.57
14041;BME280;7095;51.388;6.196;2024-01-10T07:49:27;54035.91;;;-145.32;91.60
14041;BME280;7095;51.388;6.196;2024-01-10T07:51:57;54012.06;;;-145.32;91.81
14041;BME280;7095;51.388;6.196;2024-01-10T07:54:27;53988.19;;;-145.32;91.66
14041;BME280;7095;51.388;6.196;2024-01-10T07:56:55;54014.06;;;-145.32;91.77
14041;BME280;7095;51.388;6.196;2024-01-10T07:59:24;54025.97;;;-145.32;91.74
14041;BME280;7095;51.388;6.196;2024-01-10T08:01:56;54047.84;;;-145.32;91.53
14041;BME280;7095;51.388;6.196;2024-01-10T08:04:26;54016.03;;;-145.32;91.80
14041;BME280;7095;51.388;6.196;2024-01-10T08:06:55;54025.97;;;-145.32;91.96
14041;BME280;7095;51.388;6.196;2024-01-10T08:09:24;54012.06;;;-145.32;92.25
14041;BME280;7095;51.388;6.196;2024-01-10T08:11:54;54022.00;;;-145.32;92.49
14041;BME280;7095;51.388;6.196;2024-01-10T08:14:23;54012.06;;;-145.32;92.36
14041;BME280;7095;51.388;6.196;2024-01-10T08:16:52;54016.03;;;-145.32;92.53
14041;BME280;7095;51.388;6.196;2024-01-10T08:19:22;54051.81;;;-145.32;92.59
14041;BME280;7095;51.388;6.196;2024-01-10T08:21:50;54008.09;;;-145.32;93.25
14041;BME280;7095;51.388;6.196;2024-01-10T08:24:20;54029.97;;;-145.32;93.53
14041;BME280;7095;51.388;6.196;2024-01-10T08:26:48;53996.16;;;-145.32;93.50
14041;BME280;7095;51.388;6.196;2024-01-10T08:29:21;53988.19;;;-145.32;93.40
14041;BME280;7095;51.388;6.196;2024-01-10T08:31:54;54037.91;;;-145.32;93.97
14041;BME280;7095;51.388;6.196;2024-01-10T08:34:22;53990.19;;;-145.32;93.71
14041;BME280;7095;51.388;6.196;2024-01-10T08:36:51;54000.13;;;-145.32;93.89
14041;BME280;7095;51.388;6.196;2024-01-10T08:39:20;54012.06;;;-145.32;94.11
14041;BME280;7095;51.388;6.196;2024-01-10T08:41:51;54025.97;;;-145.32;93.63
14041;BME280;7095;51.388;6.196;2024-01-10T08:44:22;54029.97;;;-145.32;93.43
14041;BME280;7095;51.388;6.196;2024-01-10T08:46:51;53988.19;;;-145.32;93.16
14041;BME280;7095;51.388;6.196;2024-01-10T08:49:20;54000.13;;;-145.32;93.03
14041;BME280;7095;51.388;6.196;2024-01-10T08:51:48;53976.28;;;-145.32;92.38
14041;BME280;7095;51.388;6.196;2024-01-10T08:54:17;53988.19;;;-145.32;92.53
14041;BME280;7095;51.388;6.196;2024-01-10T08:56:47;53978.25;;;-145.32;92.27
14041;BME280;7095;51.388;6.196;2024-01-10T08:59:15;53980.25;;;-145.32;92.38
14041;BME280;7095;51.388;6.196;2024-01-10T09:01:45;53976.28;;;-145.32;92.13
14041;BME280;7095;51.388;6.196;2024-01-10T09:04:14;53948.44;;;-145.32;91.57
14041;BME280;7095;51.388;6.196;2024-01-10T09:06:43;53956.38;;;-145.32;91.86
14041;BME280;7095;51.388;6.196;2024-01-10T09:09:12;53948.44;;;-145.32;91.37
14041;BME280;7095;51.388;6.196;2024-01-10T09:11:41;53988.19;;;-145.32;91.29
14041;BME280;7095;51.388;6.196;2024-01-10T09:14:12;53966.34;;;-145.32;91.05
14041;BME280;7095;51.388;6.196;2024-01-10T09:16:41;53952.41;;;-145.32;89.79
14041;BME280;7095;51.388;6.196;2024-01-10T09:19:11;53944.47;;;-145.32;90.27
14041;BME280;7095;51.388;6.196;2024-01-10T09:21:43;53946.44;;;-145.32;89.87
14041;BME280;7095;51.388;6.196;2024-01-10T09:24:11;53970.31;;;-145.32;90.31
14041;BME280;7095;51.388;6.196;2024-01-10T09:26:54;53962.34;;;-145.32;89.62
14041;BME280;7095;51.388;6.196;2024-01-10T09:29:24;53936.50;;;-145.32;88.99
14041;BME280;7095;51.388;6.196;2024-01-10T09:31:53;53972.28;;;-145.32;89.29
14041;BME280;7095;51.388;6.196;2024-01-10T09:34:23;53934.50;;;-145.32;87.98
14041;BME280;7095;51.388;6.196;2024-01-10T09:36:52;53952.41;;;-145.32;87.68
14041;BME280;7095;51.388;6.196;2024-01-10T09:39:21;53958.38;;;-145.32;87.61
14041;BME280;7095;51.388;6.196;2024-01-10T09:41:53;53918.59;;;-145.32;87.36
14041;BME280;7095;51.388;6.196;2024-01-10T09:44:21;53940.47;;;-145.32;87.12
14041;BME280;7095;51.388;6.196;2024-01-10T09:46:53;53908.66;;;-145.32;86.96
14041;BME280;7095;51.388;6.196;2024-01-10T09:49:24;53928.56;;;-145.32;86.47
14041;BME280;7095;51.388;6.196;2024-01-10T09:51:57;53934.50;;;-145.32;85.78
14041;BME280;7095;51.388;6.196;2024-01-10T09:54:29;53938.50;;;-145.32;85.54
14041;BME280;7095;51.388;6.196;2024-01-10T09:56:58;53908.66;;;-145.32;85.09
14041;BME280;7095;51.388;6.196;2024-01-10T09:59:27;53908.66;;;-145.32;84.75
14041;BME280;7095;51.388;6.196;2024-01-10T10:01:56;53900.72;;;-145.32;84.50
14041;BME280;7095;51.388;6.196;2024-01-10T10:04:28;53868.91;;;-145.32;84.50
14041;BME280;7095;51.388;6.196;2024-01-10T10:07:00;53886.78;;;-145.32;84.92
14041;BME280;7095;51.388;6.196;2024-01-10T10:09:31;53918.59;;;-145.32;85.07
14041;BME280;7095;51.388;6.196;2024-01-10T10:12:00;53864.94;;;-145.32;84.34
14041;BME280;7095;51.388;6.196;2024-01-10T10:14:29;53884.81;;;-145.32;83.95
14041;BME280;7095;51.388;6.196;2024-01-10T10:17:13;53864.94;;;-145.32;83.47
14041;BME280;7095;51.388;6.196;2024-01-10T10:19:45;53880.84;;;-145.32;83.28
14041;BME280;7095;51.388;6.196;2024-01-10T10:22:15;53898.72;;;-145.32;83.65
14041;BME280;7095;51.388;6.196;2024-01-10T10:24:48;53896.75;;;-145.32;82.58
14041;BME280;7095;51.388;6.196;2024-01-10T10:27:17;53880.84;;;-145.32;83.70
14041;BME280;7095;51.388;6.196;2024-01-10T10:29:45;53858.97;;;-145.32;83.18
14041;BME280;7095;51.388;6.196;2024-01-10T10:32:15;53866.91;;;-145.32;83.40
14041;BME280;7095;51.388;6.196;2024-01-10T10:34:47;53849.03;;;-145.32;81.83
14041;BME280;7095;51.388;6.196;2024-01-10T10:37:16;53839.06;;;-145.32;82.66
14041;BME280;7095;51.388;6.196;2024-01-10T10:39:45;53851.00;;;-145.32;82.00
14041;BME280;7095;51.388;6.196;2024-01-10T10:42:14;53829.13;;;-145.32;82.54
14041;BME280;7095;51.388;6.196;2024-01-10T10:44:45;53847.03;;;-145.32;81.74
14041;BME280;7095;51.388;6.196;2024-01-10T10:47:16;53860.94;;;-145.32;81.34
14041;BME280;7095;51.388;6.196;2024-01-10T10:49:51;53841.06;;;-145.32;80.42
14041;BME280;7095;51.388;6.196;2024-01-10T10:52:22;53880.84;;;-145.32;81.26
14041;BME280;7095;51.388;6.196;2024-01-10T10:54:52;53847.03;;;-145.32;81.36
14041;BME280;7095;51.388;6.196;2024-01-10T10:57:25;53856.97;;;-145.32;81.55
14041;BME280;7095;51.388;6.196;2024-01-10T10:59:55;53880.84;;;-145.32;81.67
14041;BME280;7095;51.388;6.196;2024-01-10T11:02:26;53860.94;;;-145.32;81.46
14041;BME280;7095;51.388;6.196;2024-01-10T11:05:00;53833.13;;;-145.32;80.66
14041;BME280;7095;51.388;6.196;2024-01-10T11:07:31;53833.13;;;-145.32;81.56
14041;BME280;7095;51.388;6.196;2024-01-10T11:10:06;53849.03;;;-145.32;80.60
14041;BME280;7095;51.388;6.196;2024-01-10T11:12:54;53833.13;;;-145.32;79.58
14041;BME280;7095;51.388;6.196;2024-01-10T11:15:39;53825.16;;;-145.32;80.07
14041;BME280;7095;51.388;6.196;2024-01-10T11:18:37;53807.25;;;-145.32;80.16
14041;BME280;7095;51.388;6.196;2024-01-10T11:21:21;53809.25;;;-145.32;80.19
14041;BME280;7095;51.388;6.196;2024-01-10T11:23:55;53793.34;;;-145.32;80.50
14041;BME280;7095;51.388;6.196;2024-01-10T11:26:25;53839.06;;;-145.32;79.85
14041;BME280;7095;51.388;6.196;2024-01-10T11:28:57;53809.25;;;-145.32;79.49
14041;BME280;7095;51.388;6.196;2024-01-10T11:31:28;53825.16;;;-145.32;79.26
14041;BME280;7095;51.388;6.196;2024-01-10T11:33:58;53811.25;;;-145.32;79.29
14041;BME280;7095;51.388;6.196;2024-01-10T11:36:29;53827.16;;;-145.32;79.03
14041;BME280;7095;51.388;6.196;2024-01-10T11:39:00;53819.19;;;-145.32;78.44
14041;BME280;7095;51.388;6.196;2024-01-10T11:41:31;53821.19;;;-145.32;78.11
14041;BME280;7095;51.388;6.196;2024-01-10T11:44:30;53791.34;;;-145.32;76.58
14041;BME280;7095;51.388;6.196;2024-01-10T11:47:00;53779.44;;;-145.32;77.36
14041;BME280;7095;51.388;6.196;2024-01-10T11:49:33;53789.38;;;-145.32;77.08
14041;BME280;7095;51.388;6.196;2024-01-10T11:52:05;53807.25;;;-145.32;76.60
14041;BME280;7095;51.388;6.196;2024-01-10T11:54:42;53779.44;;;-145.32;76.54
14041;BME280;7095;51.388;6.196;2024-01-10T11:57:14;53789.38;;;-145.32;77.96
14041;BME280;7095;51.388;6.196;2024-01-10T11:59:50;53807.25;;;-145.32;76.24
14041;BME280;7095;51.388;6.196;2024-01-10T12:02:21;53793.34;;;-145.32;77.60
14041;BME280;7095;51.388;6.196;2024-01-10T12:04:51;53787.38;;;-145.32;77.11
14041;BME280;7095;51.388;6.196;2024-01-10T12:07:22;53805.28;;;-145.32;75.40
14041;BME280;7095;51.388;6.196;2024-01-10T12:09:53;53779.44;;;-145.32;76.28
14041;BME280;7095;51.388;6.196;2024-01-10T12:12:23;53811.25;;;-145.32;76.40
14041;BME280;7095;51.388;6.196;2024-01-10T12:14:52;53765.50;;;-145.32;76.38
14041;BME280;7095;51.388;6.196;2024-01-10T12:17:21;53785.41;;;-145.32;75.95
14041;BME280;7095;51.388;6.196;2024-01-10T12:19:49;53759.56;;;-145.32;75.44
14041;BME280;7095;51.388;6.196;2024-01-10T12:22:18;53775.47;;;-145.32;75.30
14041;BME280;7095;51.388;6.196;2024-01-10T12:24:49;53773.47;;;-145.32;75.63
14041;BME280;7095;51.388;6.196;2024-01-10T12:27:18;53737.69;;;-145.32;75.72
14041;BME280;7095;51.388;6.196;2024-01-10T12:29:50;53761.53;;;-145.32;75.31
14041;BME280;7095;51.388;6.196;2024-01-10T12:32:20;53757.56;;;-145.32;75.69
14041;BME280;7095;51.388;6.196;2024-01-10T12:35:00;53743.66;;;-145.32;74.94
14041;BME280;7095;51.388;6.196;2024-01-10T12:37:30;53765.50;;;-145.32;75.96
14041;BME280;7095;51.388;6.196;2024-01-10T12:40:01;53721.78;;;-145.32;75.82
14041;BME280;7095;51.388;6.196;2024-01-10T12:42:37;53753.59;;;-145.32;76.13
14041;BME280;7095;51.388;6.196;2024-01-10T12:45:20;53729.72;;;-145.32;75.09
14041;BME280;7095;51.388;6.196;2024-01-10T12:47:49;53753.59;;;-145.32;74.91
14041;BME280;7095;51.388;6.196;2024-01-10T12:50:18;53717.78;;;-145.32;74.99
14041;BME280;7095;51.388;6.196;2024-01-10T12:52:47;53737.69;;;-145.32;74.60
14041;BME280;7095;51.388;6.196;2024-01-10T12:55:18;53711.84;;;-145.32;74.35
14041;BME280;7095;51.388;6.196;2024-01-10T12:57:47;53719.78;;;-145.32;75.29
14041;BME280;7095;51.388;6.196;2024-01-10T13:00:16;53697.91;;;-145.32;73.87
14041;BME280;7095;51.388;6.196;2024-01-10T13:02:46;53687.97;;;-145.32;73.16
14041;BME280;7095;51.388;6.196;2024-01-10T13:05:15;53695.94;;;-145.32;74.64